Leesburg, Florida
Current Conditions -  °F | °C
As of 10:53 AM on Thursday 29 Jan 2015 (Local Time) from KLEE Reporting Station
Clear Clear  
Wind Chill: 61°   Ceiling: Unl
Heat Index: 61°   Visibility: 10mi
Dew Point: 46°   Wind: 6mph
Humidity: 58%   Direction: 340°NNW
Pressure: 30.34"   Gusts: NA
Location:  28.81°N, 81.88°W
Report Text: KLEE 291553Z 34005KT 10SM CLR 16/08 A3034 RMK AO2 SLP274 T01610078
Loading
Personal Weather Stations






























Interactive Weather Map New forecast layout! Learn more

10-Day Weather Forecast

Advertisements
Track Severe Weather on mobile